Time;durP1;ratioP1;P1;durP2;ratioP2;P2;SDS_P1;SDS_P2;PMS_P1;PMS_P2;Temp;Humidity;BMP_temperature;BMP_pressure;BME280_temperature;BME280_humidity;BME280_pressure;Samples;Min_cycle;Max_cycle;Signal;HPM_P1;HPM_P2
2022/06/12 00:01:32;;;;;;;5.92;3.12;;;;;;;17.65;75.71;100930.45;1682626;84;25906;-57
2022/06/12 00:03:59;;;;;;;6.08;3.00;;;;;;;17.64;75.21;100928.75;1682448;84;28140;-57
2022/06/12 00:06:26;;;;;;;8.38;3.62;;;;;;;17.62;75.70;100936.23;1707443;83;25668;-55
2022/06/12 00:08:55;;;;;;;16.35;3.12;;;;;;;17.62;75.74;100929.93;1703201;83;25530;-56
2022/06/12 00:11:26;;;;;;;6.45;3.60;;;;;;;17.62;75.90;100938.09;1704294;83;26116;-56
2022/06/12 00:13:59;;;;;;;7.97;3.27;;;;;;;17.60;76.25;100927.92;1682573;84;25739;-56
2022/06/12 00:16:29;;;;;;;6.25;3.35;;;;;;;17.55;76.58;100937.98;1691962;83;28199;-56
2022/06/12 00:18:56;;;;;;;3.10;2.80;;;;;;;17.52;76.44;100927.45;1683073;84;25781;-56
2022/06/12 00:21:25;;;;;;;4.50;3.15;;;;;;;17.50;76.91;100938.52;1686796;84;25753;-56
2022/06/12 00:24:00;;;;;;;8.85;3.92;;;;;;;17.48;76.76;100931.04;1688208;83;26089;-56
2022/06/12 00:26:32;;;;;;;3.55;2.65;;;;;;;17.57;76.49;100933.72;1685898;83;25882;-56
2022/06/12 00:29:23;;;;;;;7.83;3.27;;;;;;;17.57;76.40;100941.87;1690061;83;27640;-56
2022/06/12 00:32:07;;;;;;;4.47;3.10;;;;;;;17.59;76.39;100935.75;1725450;82;25792;-56
2022/06/12 00:34:49;;;;;;;5.60;3.00;;;;;;;17.60;76.20;100934.73;1720313;82;25857;-56
2022/06/12 00:37:20;;;;;;;6.00;3.02;;;;;;;17.70;75.68;100939.44;1722483;82;26266;-55
2022/06/12 00:39:51;;;;;;;4.42;2.98;;;;;;;17.75;75.11;100938.89;1716789;82;25873;-57
2022/06/12 00:42:29;;;;;;;9.48;3.08;;;;;;;17.77;75.55;100938.18;1715619;82;27347;-55
2022/06/12 00:45:00;;;;;;;7.37;2.77;;;;;;;17.75;75.35;100934.81;1722434;82;25764;-56
2022/06/12 00:47:27;;;;;;;8.68;3.25;;;;;;;17.73;75.78;100925.98;1730796;82;25716;-56
2022/06/12 00:50:00;;;;;;;3.22;2.80;;;;;;;17.71;75.33;100920.70;1734298;82;26071;-55
2022/06/12 00:52:35;;;;;;;9.70;3.00;;;;;;;17.76;75.01;100921.52;1699639;82;25840;-55
2022/06/12 00:55:27;;;;;;;5.15;3.22;;;;;;;17.78;74.88;100924.91;1695857;82;27475;-55
2022/06/12 00:58:05;;;;;;;4.95;3.05;;;;;;;17.79;74.79;100919.81;1767910;79;25864;-56
2022/06/12 01:00:33;;;;;;;6.55;3.27;;;;;;;17.76;75.09;100914.22;1771668;80;25772;-56
2022/06/12 01:03:01;;;;;;;14.23;3.22;;;;;;;17.77;74.96;100915.92;1769256;79;25783;-56
2022/06/12 01:08:17;;;;;;;10.40;3.20;;;;;;;17.81;75.04;100915.04;1781651;80;27427;-56
2022/06/12 01:10:49;;;;;;;7.47;3.10;;;;;;;17.81;75.17;100914.51;1781443;80;25849;-56
2022/06/12 01:13:24;;;;;;;5.83;3.33;;;;;;;17.81;74.72;100904.16;1780158;80;25740;-55
2022/06/12 01:15:58;;;;;;;6.58;3.05;;;;;;;17.80;74.84;100902.45;1762232;79;26784;-56
2022/06/12 01:18:30;;;;;;;6.50;3.30;;;;;;;17.78;74.56;100902.65;1753964;79;25462;-56
2022/06/12 01:21:51;;;;;;;6.70;3.90;;;;;;;17.86;74.86;100899.53;1753943;79;27491;-55
2022/06/12 01:24:31;;;;;;;6.95;4.42;;;;;;;17.84;75.16;100896.47;1754405;79;26254;-56
2022/06/12 01:27:33;;;;;;;5.47;3.15;;;;;;;17.79;75.38;100900.27;1757831;79;25815;-55
2022/06/12 01:30:08;;;;;;;4.78;3.12;;;;;;;17.78;75.33;100908.09;1754021;79;26102;-56
2022/06/12 01:32:43;;;;;;;6.53;3.52;;;;;;;17.75;75.77;100908.97;1764313;80;25884;-56
2022/06/12 01:35:27;;;;;;;4.67;3.45;;;;;;;17.71;76.22;100903.54;1712573;82;27639;-56
2022/06/12 01:38:29;;;;;;;4.22;2.72;;;;;;;17.65;76.67;100900.52;1692975;83;25849;-56
2022/06/12 01:41:24;;;;;;;5.20;3.40;;;;;;;17.60;76.91;100898.00;1685147;83;25767;-56
2022/06/12 01:44:13;;;;;;;7.28;3.67;;;;;;;17.62;76.63;100902.73;1677886;83;27008;-55
2022/06/12 01:46:57;;;;;;;8.88;3.55;;;;;;;17.58;77.29;100890.53;1696247;83;25914;-56
2022/06/12 01:49:33;;;;;;;7.20;3.47;;;;;;;17.62;77.25;100889.13;1749438;80;27478;-56
2022/06/12 01:52:08;;;;;;;4.17;3.20;;;;;;;17.64;76.93;100890.67;1710804;82;25844;-56
2022/06/12 01:54:52;;;;;;;9.13;4.42;;;;;;;17.62;77.30;100882.33;1712610;83;25690;-56
2022/06/12 01:57:27;;;;;;;8.88;3.50;;;;;;;17.61;77.41;100883.38;1682696;84;26213;-56
2022/06/12 02:00:08;;;;;;;6.25;3.40;;;;;;;17.64;77.01;100872.98;1686169;83;25906;-56
2022/06/12 02:02:56;;;;;;;8.15;3.83;;;;;;;17.69;76.84;100880.61;1691744;83;27499;-55
2022/06/12 02:05:30;;;;;;;6.70;3.47;;;;;;;17.71;77.69;100881.77;1689377;83;25894;-56
2022/06/12 02:08:15;;;;;;;5.50;3.40;;;;;;;17.64;77.53;100876.20;1701080;83;25859;-56
2022/06/12 02:10:50;;;;;;;7.65;3.65;;;;;;;17.64;77.32;100878.92;1682184;83;28152;-56
2022/06/12 02:13:25;;;;;;;6.40;4.28;;;;;;;17.64;77.20;100874.84;1698341;83;25775;-56
2022/06/12 02:16:21;;;;;;;6.25;3.45;;;;;;;17.61;78.48;100884.74;1703777;83;27481;-56
2022/06/12 02:18:57;;;;;;;6.47;4.00;;;;;;;17.57;78.20;100876.06;1696783;82;25901;-56
2022/06/12 02:21:36;;;;;;;6.78;4.05;;;;;;;17.57;78.85;100878.78;1703486;83;25859;-55
2022/06/12 02:24:25;;;;;;;10.80;3.70;;;;;;;17.58;78.87;100894.61;1703075;83;26233;-56
2022/06/12 02:26:59;;;;;;;4.25;3.70;;;;;;;17.61;78.32;100888.82;1681735;84;25783;-56
2022/06/12 02:29:33;;;;;;;9.03;4.05;;;;;;;17.68;77.83;100880.27;1706797;82;27675;-56
2022/06/12 02:32:09;;;;;;;5.92;4.10;;;;;;;17.68;78.61;100881.10;1704530;82;25749;-56
2022/06/12 02:34:40;;;;;;;7.25;3.65;;;;;;;17.70;78.28;100884.16;1724977;82;25671;-56
2022/06/12 02:37:21;;;;;;;6.22;3.95;;;;;;;17.72;77.87;100887.02;1721718;82;26783;-56
2022/06/12 02:39:54;;;;;;;6.70;4.10;;;;;;;17.77;78.29;100882.41;1723340;82;25793;-56
2022/06/12 02:42:26;;;;;;;8.45;4.05;;;;;;;17.78;78.20;100889.05;1727883;82;27463;-56
2022/06/12 02:45:04;;;;;;;8.15;4.08;;;;;;;17.79;78.40;100884.44;1686298;83;25780;-56
2022/06/12 02:47:35;;;;;;;4.62;3.77;;;;;;;17.79;78.55;100888.52;1719593;82;25722;-56
2022/06/12 02:50:04;;;;;;;9.35;4.20;;;;;;;17.76;78.79;100887.02;1717428;83;26158;-56
2022/06/12 02:52:39;;;;;;;6.28;3.87;;;;;;;17.76;78.78;100890.23;1713718;83;26023;-56
2022/06/12 02:55:21;;;;;;;4.80;3.80;;;;;;;17.81;78.76;100891.91;1698990;83;28168;-56
2022/06/12 02:58:09;;;;;;;11.00;4.28;;;;;;;17.90;78.73;100904.43;1749322;81;27283;-56
2022/06/12 03:00:48;;;;;;;8.73;4.08;;;;;;;17.90;79.28;100903.06;1741540;81;25820;-56
2022/06/12 03:03:55;;;;;;;4.53;3.75;;;;;;;17.89;78.58;100904.59;1750691;81;26077;-55
2022/06/12 03:06:26;;;;;;;7.25;4.25;;;;;;;17.90;79.02;100907.16;1748533;81;25818;-55
2022/06/12 03:08:58;;;;;;;6.50;3.98;;;;;;;17.86;80.10;100911.78;1746179;81;28162;-55
2022/06/12 03:11:33;;;;;;;10.05;4.20;;;;;;;17.83;79.60;100919.27;1745877;81;25924;-55
2022/06/12 03:14:01;;;;;;;9.05;4.47;;;;;;;17.87;79.63;100914.84;1747898;81;25780;-55
2022/06/12 03:16:32;;;;;;;5.37;4.00;;;;;;;17.90;79.31;100914.45;1748907;81;26234;-56
2022/06/12 03:19:04;;;;;;;7.22;4.25;;;;;;;17.88;79.82;100915.17;1752860;81;25836;-55
2022/06/12 03:21:46;;;;;;;9.48;4.03;;;;;;;17.89;79.70;100912.75;1750079;81;28271;-55
2022/06/12 03:24:39;;;;;;;6.87;4.15;;;;;;;17.90;79.59;100907.16;1747076;81;25274;-55
2022/06/12 03:27:57;;;;;;;8.07;3.73;;;;;;;17.91;79.92;100909.34;1748118;81;25777;-56
2022/06/12 03:30:45;;;;;;;6.35;4.28;;;;;;;17.92;79.97;100909.19;1746942;82;27165;-56
2022/06/12 03:33:25;;;;;;;5.90;3.67;;;;;;;17.91;80.13;100905.27;1746568;81;25893;-57
2022/06/12 03:36:00;;;;;;;12.20;4.28;;;;;;;17.91;80.12;100911.57;1726890;81;27491;-56
2022/06/12 03:38:56;;;;;;;6.60;4.30;;;;;;;17.95;80.44;100924.30;1726509;81;27029;-56
2022/06/12 03:41:35;;;;;;;10.38;4.67;;;;;;;18.03;80.08;100923.41;1724877;81;25807;-56
2022/06/12 03:44:31;;;;;;;5.25;4.75;;;;;;;18.13;80.02;100911.75;1718199;81;26088;-56
2022/06/12 03:47:22;;;;;;;7.17;4.17;;;;;;;18.16;80.01;100900.52;1739426;80;25806;-56
2022/06/12 03:50:04;;;;;;;6.08;4.22;;;;;;;18.19;79.95;100904.73;1757093;80;27519;-56
2022/06/12 03:52:48;;;;;;;9.38;4.80;;;;;;;18.18;80.33;100905.77;1776598;80;27081;-56
2022/06/12 03:58:29;;;;;;;7.10;5.17;;;;;;;18.23;80.14;100908.80;1753938;79;26085;-55
2022/06/12 04:00:58;;;;;;;7.75;4.70;;;;;;;18.21;79.87;100905.41;1762439;79;26553;-56
2022/06/12 04:03:35;;;;;;;8.53;4.80;;;;;;;18.27;79.79;100900.08;1766073;79;27321;-56
2022/06/12 04:06:07;;;;;;;10.53;5.00;;;;;;;18.34;79.64;100904.25;1763770;80;25484;-56
2022/06/12 04:08:44;;;;;;;9.43;4.40;;;;;;;18.34;79.67;100902.89;1772175;80;25676;-56
2022/06/12 04:11:14;;;;;;;9.63;4.65;;;;;;;18.36;79.51;100902.73;1762204;79;26176;-56
2022/06/12 04:13:43;;;;;;;9.48;5.15;;;;;;;18.32;79.54;100893.22;1763929;79;25754;-56
2022/06/12 04:16:21;;;;;;;7.60;4.60;;;;;;;18.39;79.59;100899.12;1768281;80;27541;-56
2022/06/12 04:18:49;;;;;;;15.43;4.70;;;;;;;18.45;79.58;100891.56;1766019;79;25857;-56
2022/06/12 04:21:31;;;;;;;5.87;4.33;;;;;;;18.50;79.22;100885.55;1776565;80;25776;-56
2022/06/12 04:24:07;;;;;;;8.40;4.60;;;;;;;18.57;79.00;100884.30;1776310;80;26767;-56
2022/06/12 04:26:48;;;;;;;7.17;4.87;;;;;;;18.62;78.81;100884.58;1754638;80;25901;-56
2022/06/12 04:29:30;;;;;;;14.00;4.85;;;;;;;18.75;78.28;100886.15;1766171;80;27826;-56
2022/06/12 04:32:01;;;;;;;6.55;4.40;;;;;;;18.82;77.97;100879.44;1716785;81;25925;-56
2022/06/12 04:34:33;;;;;;;8.83;4.60;;;;;;;18.82;77.70;100882.16;1700175;82;25787;-56
2022/06/12 04:37:05;;;;;;;11.33;5.33;;;;;;;18.83;77.56;100879.73;1705324;83;26148;-56
2022/06/12 04:39:35;;;;;;;9.40;4.75;;;;;;;18.90;77.42;100893.47;1697593;83;25788;-56
2022/06/12 04:42:03;;;;;;;11.18;4.60;;;;;;;18.95;77.08;100898.38;1699097;83;27356;-57
2022/06/12 04:44:31;;;;;;;5.78;4.60;;;;;;;19.04;76.82;100895.89;1758679;80;25709;-57
2022/06/12 04:47:01;;;;;;;7.87;4.70;;;;;;;19.10;76.47;100904.66;1773915;80;25823;-57
2022/06/12 04:49:33;;;;;;;6.92;4.28;;;;;;;19.13;76.24;100902.94;1731047;80;26075;-56
2022/06/12 04:52:04;;;;;;;13.55;4.25;;;;;;;19.18;75.98;100902.37;1758321;79;25827;-57
2022/06/12 04:54:32;;;;;;;7.97;4.60;;;;;;;19.21;75.82;100906.09;1776895;80;28576;-57
2022/06/12 04:57:00;;;;;;;6.80;4.50;;;;;;;19.20;75.83;100897.58;1754080;79;25767;-56
2022/06/12 04:59:28;;;;;;;10.48;4.75;;;;;;;19.23;75.75;100895.81;1771802;80;26361;-57
2022/06/12 05:01:54;;;;;;;7.95;4.60;;;;;;;19.31;75.66;100900.33;1767548;79;26056;-57
2022/06/12 05:04:23;;;;;;;5.72;4.35;;;;;;;19.36;75.44;100898.72;1765596;79;26004;-57
2022/06/12 05:06:51;;;;;;;9.30;4.25;;;;;;;19.44;75.31;100899.63;1763943;79;27453;-57
2022/06/12 05:09:21;;;;;;;5.90;4.30;;;;;;;19.56;75.01;100907.66;1771934;79;25922;-57
2022/06/12 05:11:48;;;;;;;8.63;4.53;;;;;;;19.74;74.79;100913.20;1759426;79;25744;-57
2022/06/12 05:14:16;;;;;;;9.60;4.65;;;;;;;19.90;74.19;100923.90;1772719;79;26713;-57
2022/06/12 05:17:00;;;;;;;5.67;4.10;;;;;;;20.02;73.91;100925.59;1766843;79;26349;-58
2022/06/12 05:19:32;;;;;;;7.72;4.55;;;;;;;20.12;73.58;100927.48;1763154;79;28122;-56
2022/06/12 05:22:00;;;;;;;6.30;3.95;;;;;;;20.24;72.93;100941.45;1781581;80;25734;-56
2022/06/12 05:24:28;;;;;;;12.15;4.75;;;;;;;20.28;72.72;100943.27;1781562;80;25762;-56
2022/06/12 05:26:56;;;;;;;7.00;3.90;;;;;;;20.46;72.87;100951.00;1759921;79;26704;-56
2022/06/12 05:29:28;;;;;;;8.85;4.35;;;;;;;20.62;72.26;100955.31;1754463;80;25804;-57
2022/06/12 05:31:57;;;;;;;10.23;4.75;;;;;;;20.84;72.08;100962.13;1752085;80;27486;-56
2022/06/12 05:34:26;;;;;;;9.40;4.87;;;;;;;20.95;70.93;100962.95;1756873;80;25768;-56
2022/06/12 05:36:55;;;;;;;6.50;4.17;;;;;;;20.90;69.82;100964.06;1713578;83;25824;-55
2022/06/12 05:39:23;;;;;;;8.83;4.55;;;;;;;20.85;69.94;100971.49;1706100;82;26185;-56
2022/06/12 05:41:51;;;;;;;8.80;4.37;;;;;;;20.83;70.17;100970.88;1710954;82;25475;-56
2022/06/12 05:44:18;;;;;;;5.03;3.90;;;;;;;20.87;70.24;100972.14;1707588;82;27468;-56
2022/06/12 05:46:46;;;;;;;11.73;3.90;;;;;;;20.93;70.14;100975.97;1753973;79;25912;-56
2022/06/12 05:49:15;;;;;;;14.07;4.53;;;;;;;21.04;69.96;100974.56;1754067;80;25456;-57
2022/06/12 05:51:42;;;;;;;8.78;4.00;;;;;;;21.13;69.91;100971.99;1754102;80;25807;-57
2022/06/12 05:54:11;;;;;;;8.80;3.50;;;;;;;21.15;69.32;100974.01;1749947;81;25974;-56
2022/06/12 05:56:39;;;;;;;11.50;4.00;;;;;;;21.14;69.47;100973.69;1748556;81;27455;-57
2022/06/12 05:59:06;;;;;;;7.87;4.45;;;;;;;21.14;69.13;100985.99;1749986;81;25741;-56
2022/06/12 06:01:34;;;;;;;11.22;3.83;;;;;;;21.10;69.21;100981.45;1746731;81;25820;-56
2022/06/12 06:04:01;;;;;;;10.03;4.67;;;;;;;21.10;69.11;100980.08;1749477;81;26400;-55
2022/06/12 06:06:33;;;;;;;8.20;4.12;;;;;;;21.04;69.22;100986.88;1750192;81;25741;-56
2022/06/12 06:09:00;;;;;;;6.17;4.17;;;;;;;21.05;69.32;100990.80;1752334;81;27462;-56
2022/06/12 06:11:27;;;;;;;23.50;4.75;;;;;;;21.09;69.46;100991.23;1748176;81;25919;-56
2022/06/12 06:13:54;;;;;;;11.55;4.95;;;;;;;21.12;69.45;100992.18;1746991;81;25790;-56
2022/06/12 06:16:22;;;;;;;12.03;4.67;;;;;;;21.14;70.02;100990.63;1750258;81;27386;-55
2022/06/12 06:18:50;;;;;;;9.98;4.00;;;;;;;21.07;70.12;100991.41;1751167;81;25742;-56
2022/06/12 06:21:18;;;;;;;7.83;4.00;;;;;;;21.03;70.26;100993.38;1751639;81;27491;-56
2022/06/12 06:23:45;;;;;;;11.75;4.60;;;;;;;20.94;70.97;100992.70;1748932;81;25856;-57
2022/06/12 06:26:12;;;;;;;8.78;4.60;;;;;;;20.82;71.38;100994.29;1746901;81;25782;-56
2022/06/12 06:28:40;;;;;;;10.55;4.28;;;;;;;20.85;71.67;100991.17;1750027;80;25944;-57
2022/06/12 06:31:09;;;;;;;9.00;4.42;;;;;;;20.92;71.91;100994.28;1711064;82;25658;-57
2022/06/12 06:33:37;;;;;;;7.50;4.33;;;;;;;20.98;71.47;100992.61;1713811;82;27541;-57
2022/06/12 06:36:06;;;;;;;6.42;4.83;;;;;;;21.05;71.53;100997.63;1701896;83;25823;-57
2022/06/12 06:38:32;;;;;;;9.38;4.45;;;;;;;21.15;71.29;100999.16;1712487;83;25850;-57
2022/06/12 06:41:00;;;;;;;13.72;5.55;;;;;;;21.28;71.27;101001.97;1712494;83;26108;-57
2022/06/12 06:43:26;;;;;;;6.87;4.30;;;;;;;21.31;70.70;100993.36;1687826;83;25742;-56
2022/06/12 06:48:40;;;;;;;7.53;4.83;;;;;;;21.36;70.48;100994.95;1707064;82;25718;-57
2022/06/12 06:51:07;;;;;;;6.85;4.42;;;;;;;21.46;70.68;101004.18;1697129;83;25881;-57
2022/06/12 06:53:34;;;;;;;10.15;4.45;;;;;;;21.46;70.18;101008.79;1697063;83;26185;-56
2022/06/12 06:56:01;;;;;;;11.35;4.92;;;;;;;21.52;70.43;101006.60;1697356;83;26241;-57
2022/06/12 06:58:32;;;;;;;9.13;4.55;;;;;;;21.58;70.22;101009.41;1714455;83;27522;-57
2022/06/12 07:01:00;;;;;;;10.20;4.75;;;;;;;21.64;70.28;101007.75;1723647;82;25701;-57
2022/06/12 07:03:27;;;;;;;10.13;4.37;;;;;;;21.71;70.35;101006.42;1734411;82;25744;-56
2022/06/12 07:05:55;;;;;;;9.38;4.87;;;;;;;21.78;70.62;101011.39;1728157;82;27053;-56
2022/06/12 07:08:25;;;;;;;7.65;4.60;;;;;;;21.73;70.24;101013.91;1734465;82;25760;-56
2022/06/12 07:10:53;;;;;;;12.10;4.20;;;;;;;21.75;70.61;101013.70;1722515;82;27576;-56
2022/06/12 07:13:20;;;;;;;7.08;4.92;;;;;;;21.76;70.88;101010.75;1710409;82;25876;-56
2022/06/12 07:15:48;;;;;;;5.75;4.30;;;;;;;21.76;70.79;101012.66;1762399;80;25764;-56
2022/06/12 07:18:17;;;;;;;10.88;5.05;;;;;;;21.75;70.91;101020.00;1777086;80;26087;-56
2022/06/12 07:20:49;;;;;;;9.70;4.80;;;;;;;21.78;71.10;101020.97;1768109;80;25744;-56
2022/06/12 07:23:19;;;;;;;11.55;4.28;;;;;;;21.77;71.04;101023.93;1770790;80;27470;-57
2022/06/12 07:25:52;;;;;;;16.50;5.03;;;;;;;21.78;71.50;101025.08;1754185;80;25832;-56
2022/06/12 07:28:20;;;;;;;7.65;4.72;;;;;;;21.79;71.49;101024.55;1750319;80;25522;-57
2022/06/12 07:30:48;;;;;;;8.83;4.45;;;;;;;21.79;71.67;101023.17;1733216;82;26228;-56
2022/06/12 07:33:14;;;;;;;9.85;5.10;;;;;;;21.79;71.64;101025.91;1739896;81;26086;-57
2022/06/12 07:35:42;;;;;;;12.33;5.10;;;;;;;21.78;71.69;101018.78;1727789;82;28461;-56
2022/06/12 07:38:13;;;;;;;12.25;4.97;;;;;;;21.86;71.73;101026.81;1724431;81;25756;-61
2022/06/12 07:40:45;;;;;;;7.60;5.25;;;;;;;21.92;71.37;101027.34;1749261;82;25856;-56
2022/06/12 07:43:13;;;;;;;9.00;5.28;;;;;;;22.08;71.46;101026.65;1711176;82;26117;-56
2022/06/12 07:45:43;;;;;;;9.70;5.20;;;;;;;22.26;71.30;101021.97;1725262;80;25767;-56
2022/06/12 07:48:10;;;;;;;18.73;5.95;;;;;;;22.41;70.95;101022.65;1767747;80;27442;-56
2022/06/12 07:50:40;;;;;;;8.88;5.58;;;;;;;22.54;70.15;101020.98;1755106;80;25728;-56
2022/06/12 07:53:08;;;;;;;29.82;5.55;;;;;;;22.72;69.87;101017.09;1751830;81;25811;-56
2022/06/12 07:55:35;;;;;;;6.92;4.80;;;;;;;22.90;69.75;101015.61;1746644;81;26113;-56
2022/06/12 07:58:03;;;;;;;10.75;5.03;;;;;;;23.08;69.24;101012.19;1750393;81;25781;-56
2022/06/12 08:00:31;;;;;;;10.13;4.75;;;;;;;23.29;69.01;101013.35;1751073;81;26829;-57
2022/06/12 08:02:58;;;;;;;9.00;4.40;;;;;;;23.61;68.83;101007.13;1746411;81;25519;-57
2022/06/12 08:05:25;;;;;;;14.85;4.28;;;;;;;23.96;67.07;101007.29;1746464;81;25732;-56
2022/06/12 08:07:53;;;;;;;10.05;5.00;;;;;;;24.24;65.13;101009.67;1747068;81;26103;-56
2022/06/12 08:10:20;;;;;;;9.43;5.30;;;;;;;24.56;63.67;101011.56;1748929;81;25800;-56
2022/06/12 08:12:47;;;;;;;7.37;4.22;;;;;;;24.83;64.14;101006.15;1751611;81;28509;-57
2022/06/12 08:15:19;;;;;;;13.25;4.83;;;;;;;25.11;62.47;101022.72;1750111;81;25792;-57
2022/06/12 08:17:46;;;;;;;7.70;5.40;;;;;;;25.31;62.11;101009.28;1746234;81;25788;-57
2022/06/12 08:20:28;;;;;;;7.83;4.67;;;;;;;25.54;61.00;101011.92;1746677;81;28200;-56
2022/06/12 08:23:00;;;;;;;11.65;4.53;;;;;;;25.67;60.03;101006.23;1753198;81;25828;-56
2022/06/12 08:25:30;;;;;;;8.08;4.72;;;;;;;25.79;59.49;101004.91;1751297;81;27583;-56
2022/06/12 08:27:58;;;;;;;9.75;5.33;;;;;;;25.87;58.87;101004.59;1750352;81;25671;-58
2022/06/12 08:30:27;;;;;;;6.55;4.42;;;;;;;26.00;57.79;101002.19;1737603;80;25480;-56
2022/06/12 08:32:56;;;;;;;14.55;4.10;;;;;;;26.11;57.19;101004.73;1723568;81;26071;-56
2022/06/12 08:35:30;;;;;;;10.23;4.85;;;;;;;26.16;57.29;101011.75;1733741;81;26034;-55
2022/06/12 08:37:58;;;;;;;5.20;4.15;;;;;;;26.35;56.81;101008.92;1721824;81;27468;-56
2022/06/12 08:40:49;;;;;;;7.10;4.28;;;;;;;26.44;55.97;101014.41;1735549;80;26849;-56
2022/06/12 08:43:45;;;;;;;8.55;4.30;;;;;;;26.45;56.00;101006.44;1728014;81;25966;-56
2022/06/12 08:46:18;;;;;;;12.05;4.70;;;;;;;26.43;55.41;101005.83;1739430;80;26122;-56
2022/06/12 08:48:56;;;;;;;6.55;4.17;;;;;;;26.44;56.02;101008.06;1753216;80;25864;-56
2022/06/12 08:51:28;;;;;;;9.25;4.45;;;;;;;26.55;54.85;100996.19;1753999;80;27545;-57
2022/06/12 08:54:00;;;;;;;9.03;4.80;;;;;;;26.61;54.45;101002.67;1753901;79;25918;-56
2022/06/12 08:56:35;;;;;;;19.37;4.67;;;;;;;26.53;54.20;100993.67;1759061;79;25510;-56
2022/06/12 08:59:19;;;;;;;9.85;4.55;;;;;;;26.48;54.33;100992.70;1754076;79;26179;-56
2022/06/12 09:01:46;;;;;;;8.28;4.50;;;;;;;26.36;53.94;101000.41;1767100;79;25804;-56
2022/06/12 09:04:20;;;;;;;8.73;4.58;;;;;;;26.43;53.69;100993.97;1768264;79;27471;-56
2022/06/12 09:06:55;;;;;;;7.62;4.55;;;;;;;26.48;53.67;100981.14;1758675;79;25558;-57
2022/06/12 09:09:34;;;;;;;5.72;3.70;;;;;;;26.70;53.46;100982.79;1771397;80;25907;-56
2022/06/12 09:12:12;;;;;;;8.38;4.45;;;;;;;26.79;52.63;100990.19;1762467;79;26278;-56
2022/06/12 09:15:15;;;;;;;12.28;5.00;;;;;;;26.81;51.78;100990.80;1764283;79;25772;-56
2022/06/12 09:18:20;;;;;;;11.08;4.58;;;;;;;26.92;52.31;100989.66;1722871;81;27662;-56
2022/06/12 09:20:55;;;;;;;9.63;4.42;;;;;;;27.29;51.42;100992.14;1730363;82;25775;-56
2022/06/12 09:23:52;;;;;;;11.45;3.87;;;;;;;27.75;50.58;100986.75;1722015;81;25727;-56
2022/06/12 09:26:36;;;;;;;9.68;4.40;;;;;;;28.09;49.21;100990.48;1724223;81;26019;-56
2022/06/12 09:29:23;;;;;;;9.35;3.80;;;;;;;28.39;47.82;100982.41;1734155;82;25930;-56
2022/06/12 09:32:01;;;;;;;10.03;4.60;;;;;;;28.62;47.83;100979.20;1711659;83;27615;-57
2022/06/12 09:34:35;;;;;;;10.60;4.12;;;;;;;28.86;47.10;100979.89;1702303;82;26107;-56
2022/06/12 09:40:22;;;;;;;4.80;3.67;;;;;;;29.46;46.06;100981.55;1714538;83;26117;-56
2022/06/12 09:43:20;;;;;;;20.08;4.45;;;;;;;29.64;43.40;100974.81;1712887;83;25458;-56
2022/06/12 09:45:55;;;;;;;6.60;3.85;;;;;;;29.86;44.52;100969.80;1714609;83;27496;-57
2022/06/12 09:48:44;;;;;;;13.80;4.10;;;;;;;30.11;43.84;100973.95;1714823;82;25962;-56
2022/06/12 09:51:36;;;;;;;6.17;3.58;;;;;;;30.40;43.69;100972.27;1713578;83;25741;-56
2022/06/12 09:54:34;;;;;;;8.73;4.20;;;;;;;30.74;42.03;100960.89;1684950;83;26107;-56
2022/06/12 09:57:24;;;;;;;7.72;3.87;;;;;;;31.06;41.19;100959.42;1685791;83;25517;-57
2022/06/12 10:00:22;;;;;;;4.47;3.62;;;;;;;31.26;40.89;100960.66;1686676;82;27549;-57
2022/06/12 10:03:18;;;;;;;5.47;3.42;;;;;;;31.38;40.04;100955.69;1687000;83;25907;-57
2022/06/12 10:06:25;;;;;;;7.72;3.45;;;;;;;31.44;38.70;100946.81;1706171;83;25906;-56
2022/06/12 10:09:19;;;;;;;9.20;3.70;;;;;;;31.26;39.06;100950.94;1699952;83;26131;-56
2022/06/12 10:11:54;;;;;;;10.13;3.22;;;;;;;31.38;38.93;100939.02;1693017;83;25720;-56
2022/06/12 10:14:32;;;;;;;14.73;3.60;;;;;;;31.72;38.97;100946.09;1690810;83;27563;-56
2022/06/12 10:17:10;;;;;;;7.45;3.35;;;;;;;32.04;37.84;100945.05;1691419;83;25735;-56
2022/06/12 10:20:10;;;;;;;7.85;2.65;;;;;;;32.42;38.18;100946.19;1682454;83;25471;-56
2022/06/12 10:22:43;;;;;;;8.38;2.98;;;;;;;32.81;36.58;100942.83;1687754;83;26089;-56
2022/06/12 10:25:21;;;;;;;14.65;3.50;;;;;;;33.28;35.48;100945.43;1685450;83;25695;-57
2022/06/12 10:27:56;;;;;;;5.87;3.20;;;;;;;33.44;34.57;100939.26;1682412;84;27932;-57
2022/06/12 10:30:34;;;;;;;8.95;3.05;;;;;;;33.59;34.58;100946.72;1683045;84;25932;-57
2022/06/12 10:33:25;;;;;;;6.45;3.45;;;;;;;33.71;34.35;100937.42;1691077;83;25504;-56
2022/06/12 10:35:58;;;;;;;7.10;3.25;;;;;;;34.01;34.05;100942.01;1698275;84;26122;-56
2022/06/12 10:38:28;;;;;;;;;;;;;;;34.23;34.58;100935.69;1670277;84;25810;-56
2022/06/12 10:40:59;;;;;;;7.50;3.40;;;;;;;34.50;32.97;100929.59;1665044;84;27753;-58
2022/06/12 10:43:37;;;;;;;10.85;3.70;;;;;;;34.54;33.18;100929.83;1724024;81;25900;-58
2022/06/12 10:46:18;;;;;;;4.65;2.42;;;;;;;34.43;33.82;100936.09;1734159;80;26590;-57
2022/06/12 10:49:06;;;;;;;9.60;3.08;;;;;;;34.62;33.28;100929.19;1753777;80;26844;-58
2022/06/12 10:51:40;;;;;;;8.98;3.00;;;;;;;34.82;32.35;100923.97;1754026;79;25743;-58
2022/06/12 10:54:21;;;;;;;8.75;3.12;;;;;;;34.94;32.41;100916.59;1754959;79;27473;-57
2022/06/12 10:56:59;;;;;;;11.05;3.72;;;;;;;35.17;32.42;100916.30;1769437;79;25525;-58
2022/06/12 10:59:40;;;;;;;8.70;2.83;;;;;;;35.48;32.09;100910.89;1754061;79;25891;-57
2022/06/12 11:02:21;;;;;;;3.70;2.77;;;;;;;35.45;31.25;100912.33;1763224;80;26123;-57
2022/06/12 11:05:17;;;;;;;3.65;2.72;;;;;;;35.19;31.91;100912.62;1762711;79;25716;-58
2022/06/12 11:08:20;;;;;;;8.88;3.20;;;;;;;35.39;32.24;100917.67;1753858;79;27645;-56
2022/06/12 11:11:23;;;;;;;8.28;2.92;;;;;;;35.47;31.09;100912.02;1754158;79;25974;-56
2022/06/12 11:14:16;;;;;;;7.30;2.80;;;;;;;35.54;31.68;100904.92;1758527;79;25702;-57
2022/06/12 11:17:20;;;;;;;12.93;3.30;;;;;;;35.56;30.95;100890.04;1754398;78;26088;-57
2022/06/12 11:20:24;;;;;;;5.62;2.58;;;;;;;35.56;30.97;100899.02;1756747;78;25971;-57
2022/06/12 11:23:11;;;;;;;7.22;2.65;;;;;;;35.43;31.49;100903.40;1756057;78;27481;-58
2022/06/12 11:25:49;;;;;;;3.40;2.83;;;;;;;35.46;32.22;100892.17;1756491;78;25873;-58
2022/06/12 11:28:50;;;;;;;9.23;2.98;;;;;;;35.86;31.58;100891.28;1754391;80;25651;-56
2022/06/12 11:31:39;;;;;;;14.10;2.85;;;;;;;36.15;31.15;100883.25;1758088;80;26115;-56
2022/06/12 11:34:47;;;;;;;7.47;3.05;;;;;;;36.08;30.60;100882.27;1749838;80;25786;-57
2022/06/12 11:37:40;;;;;;;8.13;3.20;;;;;;;36.31;31.72;100870.63;1755060;80;27494;-58
2022/06/12 11:40:44;;;;;;;4.03;2.70;;;;;;;36.84;29.98;100863.47;1755671;80;26114;-57
2022/06/12 11:43:27;;;;;;;6.22;2.87;;;;;;;37.04;28.96;100870.09;1755758;80;36393;-58
2022/06/12 11:46:16;;;;;;;8.38;3.00;;;;;;;37.22;29.41;100864.06;1761970;80;26954;-58
2022/06/12 11:49:12;;;;;;;6.50;2.70;;;;;;;37.50;29.67;100848.59;1773301;80;26018;-56
2022/06/12 11:52:10;;;;;;;7.05;2.75;;;;;;;37.94;28.69;100845.29;1759791;80;28381;-57
2022/06/12 11:55:11;;;;;;;9.90;2.92;;;;;;;38.31;28.77;100854.41;1751794;81;26491;-57
2022/06/12 11:57:46;;;;;;;5.65;2.90;;;;;;;38.58;27.37;100836.56;1752448;81;25753;-57
2022/06/12 12:00:39;;;;;;;6.33;2.95;;;;;;;38.16;27.67;100835.44;1750902;81;26276;-58
2022/06/12 12:03:20;;;;;;;12.00;3.42;;;;;;;37.95;28.13;100821.13;1752714;81;27292;-57
2022/06/12 12:05:55;;;;;;;4.37;2.62;;;;;;;38.01;28.03;100821.23;1749439;81;27483;-57
2022/06/12 12:08:36;;;;;;;5.20;2.55;;;;;;;38.29;28.05;100818.79;1749655;81;26008;-57
2022/06/12 12:11:17;;;;;;;7.30;2.35;;;;;;;38.60;27.22;100823.58;1750481;81;25864;-57
2022/06/12 12:13:49;;;;;;;7.72;2.60;;;;;;;38.69;27.11;100812.38;1743422;81;26872;-57
2022/06/12 12:16:47;;;;;;;8.95;2.70;;;;;;;38.89;26.93;100808.95;1750091;81;26181;-57
2022/06/12 12:19:26;;;;;;;8.38;2.17;;;;;;;38.98;26.91;100818.23;1748884;81;27539;-57
2022/06/12 12:22:01;;;;;;;8.50;2.50;;;;;;;39.29;26.07;100813.08;1748833;81;25534;-57